Buxton, North Dakota
Current Conditions -  °F | °C
As of 9:53 AM on Saturday 25 Oct 2014 (Local Time) from KGFK Reporting Station
Few Clouds Few Clouds  
Wind Chill: 43°   Ceiling: Unl
Heat Index: 49°   Visibility: 10mi
Dew Point: 32°   Wind: 15mph
Humidity: 52%   Direction: 300°WNW
Pressure: 30.07"   Gusts: NA
Location:  47.6°N, 97.1°W
Report Text: KGFK 251453Z 30013KT 10SM FEW120 09/00 A3007 RMK AO2 SLP187 T00940000 51015
Loading
Personal Weather Stations






























Interactive Weather Map
Tropical Storm Tracking
New forecast layout! Learn more

10-Day Weather Forecast

Advertisements
Track Severe Weather on mobile